sensor_id;sensor_type;location;lat;lon;timestamp;P1;durP1;ratioP1;P2;durP2;ratioP2
67508;SDS011;54354;44.724;11.284;2022-09-02T00:01:43;3.97;;;1.40;;
67508;SDS011;54354;44.724;11.284;2022-09-02T00:04:12;1.85;;;1.20;;
67508;SDS011;54354;44.724;11.284;2022-09-02T00:06:40;4.20;;;1.50;;
67508;SDS011;54354;44.724;11.284;2022-09-02T00:09:07;3.65;;;1.27;;
67508;SDS011;54354;44.724;11.284;2022-09-02T00:11:35;4.57;;;1.27;;
67508;SDS011;54354;44.724;11.284;2022-09-02T00:14:03;3.97;;;1.30;;
67508;SDS011;54354;44.724;11.284;2022-09-02T00:16:31;3.20;;;1.40;;
67508;SDS011;54354;44.724;11.284;2022-09-02T00:18:57;3.88;;;1.40;;
67508;SDS011;54354;44.724;11.284;2022-09-02T00:21:24;3.72;;;1.40;;
67508;SDS011;54354;44.724;11.284;2022-09-02T00:23:51;3.88;;;1.55;;
67508;SDS011;54354;44.724;11.284;2022-09-02T00:26:17;5.00;;;1.38;;
67508;SDS011;54354;44.724;11.284;2022-09-02T00:28:43;1.92;;;1.20;;
67508;SDS011;54354;44.724;11.284;2022-09-02T00:31:08;2.88;;;1.40;;
67508;SDS011;54354;44.724;11.284;2022-09-02T00:33:35;4.88;;;1.45;;
67508;SDS011;54354;44.724;11.284;2022-09-02T00:36:01;2.17;;;1.40;;
67508;SDS011;54354;44.724;11.284;2022-09-02T00:38:29;6.30;;;1.65;;
67508;SDS011;54354;44.724;11.284;2022-09-02T00:40:58;4.78;;;1.50;;
67508;SDS011;54354;44.724;11.284;2022-09-02T00:43:25;2.95;;;1.50;;
67508;SDS011;54354;44.724;11.284;2022-09-02T00:46:14;7.63;;;1.60;;
67508;SDS011;54354;44.724;11.284;2022-09-02T00:48:44;3.67;;;1.35;;
67508;SDS011;54354;44.724;11.284;2022-09-02T00:51:13;1.90;;;1.30;;
67508;SDS011;54354;44.724;11.284;2022-09-02T00:53:41;2.65;;;1.40;;
67508;SDS011;54354;44.724;11.284;2022-09-02T00:56:09;5.03;;;1.60;;
67508;SDS011;54354;44.724;11.284;2022-09-02T00:58:38;4.72;;;1.60;;
67508;SDS011;54354;44.724;11.284;2022-09-02T01:01:06;3.35;;;1.65;;
67508;SDS011;54354;44.724;11.284;2022-09-02T01:03:35;2.20;;;1.50;;
67508;SDS011;54354;44.724;11.284;2022-09-02T01:06:02;4.85;;;1.50;;
67508;SDS011;54354;44.724;11.284;2022-09-02T01:08:29;2.08;;;1.40;;
67508;SDS011;54354;44.724;11.284;2022-09-02T01:10:59;5.47;;;1.77;;
67508;SDS011;54354;44.724;11.284;2022-09-02T01:13:28;5.35;;;1.80;;
67508;SDS011;54354;44.724;11.284;2022-09-02T01:15:55;5.55;;;1.60;;
67508;SDS011;54354;44.724;11.284;2022-09-02T01:18:37;3.47;;;1.42;;
67508;SDS011;54354;44.724;11.284;2022-09-02T01:21:04;4.50;;;1.67;;
67508;SDS011;54354;44.724;11.284;2022-09-02T01:23:31;3.72;;;1.70;;
67508;SDS011;54354;44.724;11.284;2022-09-02T01:25:58;3.25;;;1.90;;
67508;SDS011;54354;44.724;11.284;2022-09-02T01:28:23;5.18;;;1.95;;
67508;SDS011;54354;44.724;11.284;2022-09-02T01:30:51;2.90;;;1.75;;
67508;SDS011;54354;44.724;11.284;2022-09-02T01:35:46;2.28;;;1.80;;
67508;SDS011;54354;44.724;11.284;2022-09-02T01:38:12;2.58;;;1.75;;
67508;SDS011;54354;44.724;11.284;2022-09-02T01:40:38;5.15;;;1.88;;
67508;SDS011;54354;44.724;11.284;2022-09-02T01:43:05;4.32;;;2.15;;
67508;SDS011;54354;44.724;11.284;2022-09-02T01:45:34;4.65;;;2.15;;
67508;SDS011;54354;44.724;11.284;2022-09-02T01:48:02;5.05;;;2.10;;
67508;SDS011;54354;44.724;11.284;2022-09-02T01:50:29;2.17;;;1.90;;
67508;SDS011;54354;44.724;11.284;2022-09-02T01:52:57;5.32;;;1.92;;
67508;SDS011;54354;44.724;11.284;2022-09-02T01:55:26;3.63;;;1.93;;
67508;SDS011;54354;44.724;11.284;2022-09-02T01:57:52;2.85;;;1.98;;
67508;SDS011;54354;44.724;11.284;2022-09-02T02:00:18;3.60;;;2.00;;
67508;SDS011;54354;44.724;11.284;2022-09-02T02:02:44;7.38;;;2.42;;
67508;SDS011;54354;44.724;11.284;2022-09-02T02:05:10;4.13;;;2.17;;
67508;SDS011;54354;44.724;11.284;2022-09-02T02:07:38;4.28;;;2.00;;
67508;SDS011;54354;44.724;11.284;2022-09-02T02:10:06;5.30;;;2.35;;
67508;SDS011;54354;44.724;11.284;2022-09-02T02:12:32;4.75;;;1.92;;
67508;SDS011;54354;44.724;11.284;2022-09-02T02:15:06;2.97;;;1.80;;
67508;SDS011;54354;44.724;11.284;2022-09-02T02:17:34;6.40;;;2.40;;
67508;SDS011;54354;44.724;11.284;2022-09-02T02:19:59;2.88;;;2.47;;
67508;SDS011;54354;44.724;11.284;2022-09-02T02:22:25;2.97;;;2.40;;
67508;SDS011;54354;44.724;11.284;2022-09-02T02:24:52;5.53;;;2.30;;
67508;SDS011;54354;44.724;11.284;2022-09-02T02:27:18;5.28;;;2.03;;
67508;SDS011;54354;44.724;11.284;2022-09-02T02:29:45;4.25;;;2.38;;
67508;SDS011;54354;44.724;11.284;2022-09-02T02:32:11;4.10;;;2.28;;
67508;SDS011;54354;44.724;11.284;2022-09-02T02:34:37;3.35;;;2.13;;
67508;SDS011;54354;44.724;11.284;2022-09-02T02:37:04;7.97;;;2.35;;
67508;SDS011;54354;44.724;11.284;2022-09-02T02:39:30;6.38;;;2.50;;
67508;SDS011;54354;44.724;11.284;2022-09-02T02:41:56;6.47;;;2.33;;
67508;SDS011;54354;44.724;11.284;2022-09-02T02:44:21;5.47;;;2.35;;
67508;SDS011;54354;44.724;11.284;2022-09-02T02:46:48;7.07;;;2.80;;
67508;SDS011;54354;44.724;11.284;2022-09-02T02:49:14;4.95;;;2.38;;
67508;SDS011;54354;44.724;11.284;2022-09-02T02:51:40;4.75;;;2.20;;
67508;SDS011;54354;44.724;11.284;2022-09-02T02:54:07;3.17;;;2.38;;
67508;SDS011;54354;44.724;11.284;2022-09-02T02:56:35;5.38;;;2.40;;
67508;SDS011;54354;44.724;11.284;2022-09-02T02:59:01;5.47;;;2.40;;
67508;SDS011;54354;44.724;11.284;2022-09-02T03:01:28;5.68;;;2.88;;
67508;SDS011;54354;44.724;11.284;2022-09-02T03:03:55;6.60;;;2.70;;
67508;SDS011;54354;44.724;11.284;2022-09-02T03:06:22;6.25;;;2.90;;
67508;SDS011;54354;44.724;11.284;2022-09-02T03:08:48;5.72;;;2.65;;
67508;SDS011;54354;44.724;11.284;2022-09-02T03:11:15;3.67;;;2.40;;
67508;SDS011;54354;44.724;11.284;2022-09-02T03:13:41;5.30;;;2.47;;
67508;SDS011;54354;44.724;11.284;2022-09-02T03:16:07;5.25;;;2.38;;
67508;SDS011;54354;44.724;11.284;2022-09-02T03:18:33;6.60;;;3.20;;
67508;SDS011;54354;44.724;11.284;2022-09-02T03:20:59;3.97;;;2.70;;
67508;SDS011;54354;44.724;11.284;2022-09-02T03:23:25;4.43;;;2.70;;
67508;SDS011;54354;44.724;11.284;2022-09-02T03:25:51;4.07;;;3.00;;
67508;SDS011;54354;44.724;11.284;2022-09-02T03:28:26;5.43;;;2.60;;
67508;SDS011;54354;44.724;11.284;2022-09-02T03:30:53;5.90;;;2.90;;
67508;SDS011;54354;44.724;11.284;2022-09-02T03:33:18;5.82;;;2.60;;
67508;SDS011;54354;44.724;11.284;2022-09-02T03:35:45;7.78;;;2.42;;
67508;SDS011;54354;44.724;11.284;2022-09-02T03:38:11;7.28;;;2.90;;
67508;SDS011;54354;44.724;11.284;2022-09-02T03:40:37;4.97;;;2.60;;
67508;SDS011;54354;44.724;11.284;2022-09-02T03:43:04;3.92;;;2.70;;
67508;SDS011;54354;44.724;11.284;2022-09-02T03:45:30;5.72;;;2.40;;
67508;SDS011;54354;44.724;11.284;2022-09-02T03:48:00;8.10;;;2.53;;
67508;SDS011;54354;44.724;11.284;2022-09-02T03:50:30;4.03;;;2.25;;
67508;SDS011;54354;44.724;11.284;2022-09-02T03:53:02;4.82;;;2.20;;
67508;SDS011;54354;44.724;11.284;2022-09-02T03:55:29;8.18;;;2.45;;
67508;SDS011;54354;44.724;11.284;2022-09-02T03:57:54;4.35;;;2.50;;
67508;SDS011;54354;44.724;11.284;2022-09-02T04:00:22;3.65;;;2.53;;
67508;SDS011;54354;44.724;11.284;2022-09-02T04:02:50;4.45;;;2.75;;
67508;SDS011;54354;44.724;11.284;2022-09-02T04:05:17;4.97;;;2.72;;
67508;SDS011;54354;44.724;11.284;2022-09-02T04:07:43;6.70;;;2.80;;
67508;SDS011;54354;44.724;11.284;2022-09-02T04:10:11;8.70;;;2.83;;
67508;SDS011;54354;44.724;11.284;2022-09-02T04:12:37;6.55;;;2.63;;
67508;SDS011;54354;44.724;11.284;2022-09-02T04:15:04;4.38;;;2.75;;
67508;SDS011;54354;44.724;11.284;2022-09-02T04:17:31;6.00;;;2.95;;
67508;SDS011;54354;44.724;11.284;2022-09-02T04:20:00;5.25;;;2.78;;
67508;SDS011;54354;44.724;11.284;2022-09-02T04:22:25;4.03;;;2.53;;
67508;SDS011;54354;44.724;11.284;2022-09-02T04:24:51;4.25;;;2.42;;
67508;SDS011;54354;44.724;11.284;2022-09-02T04:27:17;5.82;;;2.63;;
67508;SDS011;54354;44.724;11.284;2022-09-02T04:29:44;3.88;;;2.47;;
67508;SDS011;54354;44.724;11.284;2022-09-02T04:32:09;4.57;;;2.85;;
67508;SDS011;54354;44.724;11.284;2022-09-02T04:34:36;3.83;;;2.58;;
67508;SDS011;54354;44.724;11.284;2022-09-02T04:37:02;6.85;;;2.78;;
67508;SDS011;54354;44.724;11.284;2022-09-02T04:39:27;5.45;;;2.97;;
67508;SDS011;54354;44.724;11.284;2022-09-02T04:41:53;4.38;;;2.88;;
67508;SDS011;54354;44.724;11.284;2022-09-02T04:44:19;6.40;;;2.85;;
67508;SDS011;54354;44.724;11.284;2022-09-02T04:46:46;10.82;;;3.03;;
67508;SDS011;54354;44.724;11.284;2022-09-02T04:49:16;11.85;;;3.10;;
67508;SDS011;54354;44.724;11.284;2022-09-02T04:51:43;4.30;;;2.72;;
67508;SDS011;54354;44.724;11.284;2022-09-02T04:54:09;5.20;;;3.20;;
67508;SDS011;54354;44.724;11.284;2022-09-02T04:56:37;5.75;;;3.13;;
67508;SDS011;54354;44.724;11.284;2022-09-02T04:59:03;5.75;;;3.17;;
67508;SDS011;54354;44.724;11.284;2022-09-02T05:01:31;3.95;;;2.92;;
67508;SDS011;54354;44.724;11.284;2022-09-02T05:04:06;6.60;;;3.22;;
67508;SDS011;54354;44.724;11.284;2022-09-02T05:06:37;5.88;;;3.10;;
67508;SDS011;54354;44.724;11.284;2022-09-02T05:09:05;8.10;;;3.03;;
67508;SDS011;54354;44.724;11.284;2022-09-02T05:11:34;5.20;;;3.15;;
67508;SDS011;54354;44.724;11.284;2022-09-02T05:14:00;9.52;;;3.25;;
67508;SDS011;54354;44.724;11.284;2022-09-02T05:16:30;3.67;;;2.90;;
67508;SDS011;54354;44.724;11.284;2022-09-02T05:18:59;6.03;;;2.97;;
67508;SDS011;54354;44.724;11.284;2022-09-02T05:21:33;5.32;;;3.30;;
67508;SDS011;54354;44.724;11.284;2022-09-02T05:24:00;7.53;;;3.30;;
67508;SDS011;54354;44.724;11.284;2022-09-02T05:26:26;6.22;;;3.30;;
67508;SDS011;54354;44.724;11.284;2022-09-02T05:28:51;4.65;;;3.05;;
67508;SDS011;54354;44.724;11.284;2022-09-02T05:31:18;5.28;;;3.20;;
67508;SDS011;54354;44.724;11.284;2022-09-02T05:33:46;7.35;;;2.90;;
67508;SDS011;54354;44.724;11.284;2022-09-02T05:36:18;7.93;;;3.15;;
67508;SDS011;54354;44.724;11.284;2022-09-02T05:38:47;8.15;;;3.25;;
67508;SDS011;54354;44.724;11.284;2022-09-02T05:41:14;8.57;;;3.05;;
67508;SDS011;54354;44.724;11.284;2022-09-02T05:43:42;8.90;;;3.00;;
67508;SDS011;54354;44.724;11.284;2022-09-02T05:46:11;6.78;;;2.92;;
67508;SDS011;54354;44.724;11.284;2022-09-02T05:48:43;5.97;;;3.22;;
67508;SDS011;54354;44.724;11.284;2022-09-02T05:51:28;4.38;;;2.83;;
67508;SDS011;54354;44.724;11.284;2022-09-02T05:53:55;5.28;;;3.05;;
67508;SDS011;54354;44.724;11.284;2022-09-02T05:56:23;8.80;;;3.30;;
67508;SDS011;54354;44.724;11.284;2022-09-02T05:58:50;5.30;;;3.35;;
67508;SDS011;54354;44.724;11.284;2022-09-02T06:01:17;4.53;;;2.80;;
67508;SDS011;54354;44.724;11.284;2022-09-02T06:03:45;7.65;;;3.30;;
67508;SDS011;54354;44.724;11.284;2022-09-02T06:06:11;5.03;;;3.20;;
67508;SDS011;54354;44.724;11.284;2022-09-02T06:08:38;5.75;;;2.40;;
67508;SDS011;54354;44.724;11.284;2022-09-02T06:11:06;6.07;;;2.22;;
67508;SDS011;54354;44.724;11.284;2022-09-02T06:13:34;6.43;;;2.40;;
67508;SDS011;54354;44.724;11.284;2022-09-02T06:16:06;6.53;;;2.40;;
67508;SDS011;54354;44.724;11.284;2022-09-02T06:18:41;3.95;;;1.88;;
67508;SDS011;54354;44.724;11.284;2022-09-02T06:21:07;3.65;;;2.25;;
67508;SDS011;54354;44.724;11.284;2022-09-02T06:23:38;2.38;;;1.98;;
67508;SDS011;54354;44.724;11.284;2022-09-02T06:26:07;4.68;;;2.28;;
67508;SDS011;54354;44.724;11.284;2022-09-02T06:28:34;3.33;;;2.42;;
67508;SDS011;54354;44.724;11.284;2022-09-02T06:31:08;4.18;;;2.10;;
67508;SDS011;54354;44.724;11.284;2022-09-02T06:33:36;3.60;;;1.95;;
67508;SDS011;54354;44.724;11.284;2022-09-02T06:36:05;4.90;;;2.28;;
67508;SDS011;54354;44.724;11.284;2022-09-02T06:38:35;2.85;;;2.50;;
67508;SDS011;54354;44.724;11.284;2022-09-02T06:41:05;4.05;;;2.20;;
67508;SDS011;54354;44.724;11.284;2022-09-02T06:43:38;5.88;;;2.15;;
67508;SDS011;54354;44.724;11.284;2022-09-02T06:46:13;10.07;;;2.50;;
67508;SDS011;54354;44.724;11.284;2022-09-02T06:48:41;4.90;;;2.20;;
67508;SDS011;54354;44.724;11.284;2022-09-02T06:51:06;8.07;;;2.55;;
67508;SDS011;54354;44.724;11.284;2022-09-02T06:53:32;8.00;;;2.60;;
67508;SDS011;54354;44.724;11.284;2022-09-02T06:55:58;3.75;;;2.30;;
67508;SDS011;54354;44.724;11.284;2022-09-02T06:58:24;7.90;;;2.10;;
67508;SDS011;54354;44.724;11.284;2022-09-02T07:00:50;2.50;;;1.80;;
67508;SDS011;54354;44.724;11.284;2022-09-02T07:03:15;3.38;;;1.95;;
67508;SDS011;54354;44.724;11.284;2022-09-02T07:06:09;3.05;;;2.17;;
67508;SDS011;54354;44.724;11.284;2022-09-02T07:08:41;4.53;;;2.30;;
67508;SDS011;54354;44.724;11.284;2022-09-02T07:11:14;12.45;;;2.30;;
67508;SDS011;54354;44.724;11.284;2022-09-02T07:13:50;4.43;;;1.90;;
67508;SDS011;54354;44.724;11.284;2022-09-02T07:16:17;5.25;;;1.90;;
67508;SDS011;54354;44.724;11.284;2022-09-02T07:18:44;4.18;;;2.08;;
67508;SDS011;54354;44.724;11.284;2022-09-02T07:21:11;5.72;;;2.10;;
67508;SDS011;54354;44.724;11.284;2022-09-02T07:23:38;4.05;;;1.90;;
67508;SDS011;54354;44.724;11.284;2022-09-02T07:26:14;6.95;;;2.10;;
67508;SDS011;54354;44.724;11.284;2022-09-02T07:28:43;3.42;;;1.80;;
67508;SDS011;54354;44.724;11.284;2022-09-02T07:31:12;4.10;;;1.90;;
67508;SDS011;54354;44.724;11.284;2022-09-02T07:33:39;8.32;;;1.83;;
67508;SDS011;54354;44.724;11.284;2022-09-02T07:36:05;6.70;;;1.70;;
67508;SDS011;54354;44.724;11.284;2022-09-02T07:38:33;4.35;;;1.60;;
67508;SDS011;54354;44.724;11.284;2022-09-02T07:40:59;5.90;;;2.00;;
67508;SDS011;54354;44.724;11.284;2022-09-02T07:43:29;2.38;;;1.55;;
67508;SDS011;54354;44.724;11.284;2022-09-02T07:45:56;3.20;;;1.60;;
67508;SDS011;54354;44.724;11.284;2022-09-02T07:48:24;4.75;;;1.50;;
67508;SDS011;54354;44.724;11.284;2022-09-02T07:50:50;5.18;;;1.75;;
67508;SDS011;54354;44.724;11.284;2022-09-02T07:53:17;3.10;;;1.50;;
67508;SDS011;54354;44.724;11.284;2022-09-02T07:55:44;6.68;;;1.60;;
67508;SDS011;54354;44.724;11.284;2022-09-02T07:58:13;3.28;;;1.70;;
67508;SDS011;54354;44.724;11.284;2022-09-02T08:00:41;6.60;;;1.60;;
67508;SDS011;54354;44.724;11.284;2022-09-02T08:03:09;3.40;;;1.90;;
67508;SDS011;54354;44.724;11.284;2022-09-02T08:05:40;3.70;;;1.60;;
67508;SDS011;54354;44.724;11.284;2022-09-02T08:08:09;4.50;;;1.70;;
67508;SDS011;54354;44.724;11.284;2022-09-02T08:10:35;4.70;;;1.83;;
67508;SDS011;54354;44.724;11.284;2022-09-02T08:13:02;2.97;;;1.67;;
67508;SDS011;54354;44.724;11.284;2022-09-02T08:15:29;3.15;;;1.50;;
67508;SDS011;54354;44.724;11.284;2022-09-02T08:17:55;7.32;;;1.75;;
67508;SDS011;54354;44.724;11.284;2022-09-02T08:20:22;7.65;;;1.90;;
67508;SDS011;54354;44.724;11.284;2022-09-02T08:22:47;6.22;;;1.83;;
67508;SDS011;54354;44.724;11.284;2022-09-02T08:25:13;6.45;;;1.77;;
67508;SDS011;54354;44.724;11.284;2022-09-02T08:27:40;5.15;;;1.60;;
67508;SDS011;54354;44.724;11.284;2022-09-02T08:30:06;2.70;;;1.77;;
67508;SDS011;54354;44.724;11.284;2022-09-02T08:32:38;4.30;;;1.65;;
67508;SDS011;54354;44.724;11.284;2022-09-02T08:35:04;7.25;;;1.50;;
67508;SDS011;54354;44.724;11.284;2022-09-02T08:37:31;5.15;;;1.73;;
67508;SDS011;54354;44.724;11.284;2022-09-02T08:39:59;7.30;;;1.50;;
67508;SDS011;54354;44.724;11.284;2022-09-02T08:42:36;9.63;;;1.50;;
67508;SDS011;54354;44.724;11.284;2022-09-02T08:48:10;6.82;;;2.25;;
67508;SDS011;54354;44.724;11.284;2022-09-02T08:50:48;4.47;;;1.45;;
67508;SDS011;54354;44.724;11.284;2022-09-02T08:55:54;5.03;;;1.50;;
67508;SDS011;54354;44.724;11.284;2022-09-02T08:58:23;3.75;;;1.30;;
67508;SDS011;54354;44.724;11.284;2022-09-02T09:01:04;3.88;;;1.20;;
67508;SDS011;54354;44.724;11.284;2022-09-02T09:03:36;6.63;;;1.15;;
67508;SDS011;54354;44.724;11.284;2022-09-02T09:06:17;5.25;;;1.38;;
67508;SDS011;54354;44.724;11.284;2022-09-02T09:18:03;5.40;;;1.20;;
67508;SDS011;54354;44.724;11.284;2022-09-02T09:20:42;5.82;;;1.38;;
67508;SDS011;54354;44.724;11.284;2022-09-02T09:25:46;3.90;;;1.20;;
67508;SDS011;54354;44.724;11.284;2022-09-02T09:28:13;4.88;;;1.33;;
67508;SDS011;54354;44.724;11.284;2022-09-02T09:30:39;6.03;;;1.10;;
67508;SDS011;54354;44.724;11.284;2022-09-02T09:33:05;4.05;;;1.40;;
67508;SDS011;54354;44.724;11.284;2022-09-02T09:38:27;5.10;;;1.40;;
67508;SDS011;54354;44.724;11.284;2022-09-02T09:43:55;9.00;;;1.20;;
67508;SDS011;54354;44.724;11.284;2022-09-02T09:48:51;4.40;;;1.23;;
67508;SDS011;54354;44.724;11.284;2022-09-02T09:51:17;2.10;;;1.00;;
67508;SDS011;54354;44.724;11.284;2022-09-02T09:53:43;3.92;;;1.00;;
67508;SDS011;54354;44.724;11.284;2022-09-02T10:57:05;2.42;;;0.98;;
67508;SDS011;54354;44.724;11.284;2022-09-02T11:08:14;5.30;;;1.08;;
67508;SDS011;54354;44.724;11.284;2022-09-02T11:10:25;3.63;;;1.20;;
67508;SDS011;54354;44.724;11.284;2022-09-02T11:12:58;1.58;;;1.00;;
67508;SDS011;54354;44.724;11.284;2022-09-02T11:21:28;2.25;;;1.05;;
67508;SDS011;54354;44.724;11.284;2022-09-02T11:23:45;2.92;;;0.93;;
67508;SDS011;54354;44.724;11.284;2022-09-02T11:32:03;1.30;;;0.98;;
67508;SDS011;54354;44.724;11.284;2022-09-02T11:34:46;1.13;;;0.90;;
67508;SDS011;54354;44.724;11.284;2022-09-02T11:37:23;4.80;;;0.90;;
67508;SDS011;54354;44.724;11.284;2022-09-02T11:48:54;1.42;;;0.90;;
67508;SDS011;54354;44.724;11.284;2022-09-02T11:54:40;3.13;;;1.02;;
67508;SDS011;54354;44.724;11.284;2022-09-02T11:57:10;2.83;;;1.00;;
67508;SDS011;54354;44.724;11.284;2022-09-02T12:07:53;1.65;;;1.10;;
67508;SDS011;54354;44.724;11.284;2022-09-02T12:13:05;3.60;;;1.30;;
67508;SDS011;54354;44.724;11.284;2022-09-02T12:15:32;3.40;;;1.20;;
67508;SDS011;54354;44.724;11.284;2022-09-02T12:26:13;1.98;;;0.90;;
67508;SDS011;54354;44.724;11.284;2022-09-02T12:28:40;2.72;;;1.10;;
67508;SDS011;54354;44.724;11.284;2022-09-02T12:31:09;3.28;;;1.10;;
67508;SDS011;54354;44.724;11.284;2022-09-02T12:33:42;4.35;;;0.95;;
67508;SDS011;54354;44.724;11.284;2022-09-02T12:42:25;2.33;;;1.08;;
67508;SDS011;54354;44.724;11.284;2022-09-02T12:45:02;2.63;;;1.00;;
67508;SDS011;54354;44.724;11.284;2022-09-02T12:50:10;1.70;;;1.20;;
67508;SDS011;54354;44.724;11.284;2022-09-02T12:52:48;1.40;;;1.02;;
67508;SDS011;54354;44.724;11.284;2022-09-02T12:55:23;1.98;;;0.85;;
67508;SDS011;54354;44.724;11.284;2022-09-02T12:58:08;5.18;;;1.23;;
67508;SDS011;54354;44.724;11.284;2022-09-02T13:15:00;5.40;;;1.13;;
67508;SDS011;54354;44.724;11.284;2022-09-02T13:25:40;1.90;;;1.15;;
67508;SDS011;54354;44.724;11.284;2022-09-02T13:33:29;2.90;;;1.42;;
67508;SDS011;54354;44.724;11.284;2022-09-02T13:35:55;1.38;;;1.02;;
67508;SDS011;54354;44.724;11.284;2022-09-02T13:38:23;5.07;;;1.13;;
67508;SDS011;54354;44.724;11.284;2022-09-02T13:40:52;1.70;;;1.10;;
67508;SDS011;54354;44.724;11.284;2022-09-02T13:43:18;3.13;;;1.02;;
67508;SDS011;54354;44.724;11.284;2022-09-02T13:45:46;1.98;;;1.00;;
67508;SDS011;54354;44.724;11.284;2022-09-02T13:50:50;4.70;;;1.00;;
67508;SDS011;54354;44.724;11.284;2022-09-02T13:56:01;5.20;;;0.90;;
67508;SDS011;54354;44.724;11.284;2022-09-02T14:00:56;3.45;;;1.25;;
67508;SDS011;54354;44.724;11.284;2022-09-02T14:03:44;4.65;;;1.20;;
67508;SDS011;54354;44.724;11.284;2022-09-02T14:06:14;3.50;;;0.95;;
67508;SDS011;54354;44.724;11.284;2022-09-02T14:08:42;7.60;;;0.98;;
67508;SDS011;54354;44.724;11.284;2022-09-02T14:11:12;4.25;;;1.30;;
67508;SDS011;54354;44.724;11.284;2022-09-02T14:13:43;2.72;;;1.00;;
67508;SDS011;54354;44.724;11.284;2022-09-02T14:16:26;2.85;;;1.00;;
67508;SDS011;54354;44.724;11.284;2022-09-02T14:19:10;8.17;;;1.10;;
67508;SDS011;54354;44.724;11.284;2022-09-02T14:21:55;4.80;;;1.17;;
67508;SDS011;54354;44.724;11.284;2022-09-02T14:24:25;3.40;;;0.90;;
67508;SDS011;54354;44.724;11.284;2022-09-02T14:26:53;3.45;;;1.00;;
67508;SDS011;54354;44.724;11.284;2022-09-02T14:29:21;2.08;;;0.98;;
67508;SDS011;54354;44.724;11.284;2022-09-02T14:34:43;2.53;;;1.00;;
67508;SDS011;54354;44.724;11.284;2022-09-02T14:40:04;3.80;;;1.00;;
67508;SDS011;54354;44.724;11.284;2022-09-02T14:45:06;3.13;;;1.00;;
67508;SDS011;54354;44.724;11.284;2022-09-02T14:47:35;3.55;;;0.90;;
67508;SDS011;54354;44.724;11.284;2022-09-02T14:50:03;1.40;;;0.85;;
67508;SDS011;54354;44.724;11.284;2022-09-02T14:52:29;2.88;;;0.80;;
67508;SDS011;54354;44.724;11.284;2022-09-02T14:54:59;4.13;;;0.90;;
67508;SDS011;54354;44.724;11.284;2022-09-02T14:57:25;1.98;;;0.93;;
67508;SDS011;54354;44.724;11.284;2022-09-02T14:59:52;6.10;;;0.90;;
67508;SDS011;54354;44.724;11.284;2022-09-02T15:02:23;1.60;;;1.15;;
67508;SDS011;54354;44.724;11.284;2022-09-02T15:04:56;4.20;;;1.00;;
67508;SDS011;54354;44.724;11.284;2022-09-02T15:07:23;5.45;;;0.98;;
67508;SDS011;54354;44.724;11.284;2022-09-02T15:09:50;1.58;;;0.90;;
67508;SDS011;54354;44.724;11.284;2022-09-02T15:12:23;3.05;;;0.90;;
67508;SDS011;54354;44.724;11.284;2022-09-02T15:14:53;1.65;;;0.98;;
67508;SDS011;54354;44.724;11.284;2022-09-02T15:17:20;1.55;;;0.80;;
67508;SDS011;54354;44.724;11.284;2022-09-02T15:19:45;2.15;;;0.90;;
67508;SDS011;54354;44.724;11.284;2022-09-02T15:22:11;2.70;;;0.80;;
67508;SDS011;54354;44.724;11.284;2022-09-02T15:24:37;4.47;;;1.00;;
67508;SDS011;54354;44.724;11.284;2022-09-02T15:27:03;4.25;;;1.00;;
67508;SDS011;54354;44.724;11.284;2022-09-02T15:29:29;4.45;;;1.00;;
67508;SDS011;54354;44.724;11.284;2022-09-02T15:31:55;1.67;;;0.95;;
67508;SDS011;54354;44.724;11.284;2022-09-02T15:34:21;5.45;;;0.80;;
67508;SDS011;54354;44.724;11.284;2022-09-02T15:36:48;2.53;;;0.80;;
67508;SDS011;54354;44.724;11.284;2022-09-02T15:39:14;3.35;;;0.85;;
67508;SDS011;54354;44.724;11.284;2022-09-02T15:41:41;5.72;;;0.90;;
67508;SDS011;54354;44.724;11.284;2022-09-02T15:44:07;3.85;;;0.82;;
67508;SDS011;54354;44.724;11.284;2022-09-02T15:46:33;3.40;;;0.90;;
67508;SDS011;54354;44.724;11.284;2022-09-02T15:49:03;1.95;;;0.90;;
67508;SDS011;54354;44.724;11.284;2022-09-02T15:51:32;1.77;;;0.77;;
67508;SDS011;54354;44.724;11.284;2022-09-02T15:54:00;2.42;;;0.90;;
67508;SDS011;54354;44.724;11.284;2022-09-02T15:56:28;5.60;;;1.15;;
67508;SDS011;54354;44.724;11.284;2022-09-02T15:58:56;2.17;;;1.10;;
67508;SDS011;54354;44.724;11.284;2022-09-02T16:01:30;2.33;;;0.90;;
67508;SDS011;54354;44.724;11.284;2022-09-02T16:03:57;4.07;;;0.77;;
67508;SDS011;54354;44.724;11.284;2022-09-02T16:06:24;1.55;;;1.00;;
67508;SDS011;54354;44.724;11.284;2022-09-02T16:08:50;6.70;;;1.05;;
67508;SDS011;54354;44.724;11.284;2022-09-02T16:11:15;5.80;;;1.30;;
67508;SDS011;54354;44.724;11.284;2022-09-02T16:13:41;1.25;;;0.90;;
67508;SDS011;54354;44.724;11.284;2022-09-02T16:16:08;5.30;;;0.90;;
67508;SDS011;54354;44.724;11.284;2022-09-02T16:18:37;3.45;;;1.00;;
67508;SDS011;54354;44.724;11.284;2022-09-02T16:21:06;8.68;;;5.05;;
67508;SDS011;54354;44.724;11.284;2022-09-02T16:23:33;7.03;;;2.30;;
67508;SDS011;54354;44.724;11.284;2022-09-02T16:26:13;6.55;;;1.40;;
67508;SDS011;54354;44.724;11.284;2022-09-02T16:28:49;6.63;;;1.30;;
67508;SDS011;54354;44.724;11.284;2022-09-02T16:31:17;7.53;;;1.50;;
67508;SDS011;54354;44.724;11.284;2022-09-02T16:33:54;4.25;;;1.08;;
67508;SDS011;54354;44.724;11.284;2022-09-02T16:36:22;2.75;;;0.80;;
67508;SDS011;54354;44.724;11.284;2022-09-02T16:38:49;1.77;;;0.98;;
67508;SDS011;54354;44.724;11.284;2022-09-02T16:41:22;2.33;;;1.05;;
67508;SDS011;54354;44.724;11.284;2022-09-02T16:43:52;3.72;;;0.70;;
67508;SDS011;54354;44.724;11.284;2022-09-02T16:46:20;5.88;;;1.33;;
67508;SDS011;54354;44.724;11.284;2022-09-02T16:48:46;4.85;;;0.90;;
67508;SDS011;54354;44.724;11.284;2022-09-02T16:51:13;5.45;;;1.20;;
67508;SDS011;54354;44.724;11.284;2022-09-02T16:53:39;3.83;;;1.65;;
67508;SDS011;54354;44.724;11.284;2022-09-02T16:56:09;5.32;;;1.30;;
67508;SDS011;54354;44.724;11.284;2022-09-02T16:58:36;1.45;;;0.77;;
67508;SDS011;54354;44.724;11.284;2022-09-02T17:01:05;3.63;;;0.95;;
67508;SDS011;54354;44.724;11.284;2022-09-02T17:03:33;2.80;;;0.90;;
67508;SDS011;54354;44.724;11.284;2022-09-02T17:06:00;7.00;;;1.38;;
67508;SDS011;54354;44.724;11.284;2022-09-02T17:08:26;3.10;;;0.93;;
67508;SDS011;54354;44.724;11.284;2022-09-02T17:11:08;8.45;;;0.90;;
67508;SDS011;54354;44.724;11.284;2022-09-02T17:13:40;3.35;;;0.77;;
67508;SDS011;54354;44.724;11.284;2022-09-02T17:16:06;4.07;;;0.70;;
67508;SDS011;54354;44.724;11.284;2022-09-02T17:18:33;3.33;;;1.10;;
67508;SDS011;54354;44.724;11.284;2022-09-02T17:21:10;4.78;;;1.27;;
67508;SDS011;54354;44.724;11.284;2022-09-02T17:23:36;5.00;;;0.98;;
67508;SDS011;54354;44.724;11.284;2022-09-02T17:26:02;5.95;;;1.10;;
67508;SDS011;54354;44.724;11.284;2022-09-02T17:28:29;2.75;;;1.05;;
67508;SDS011;54354;44.724;11.284;2022-09-02T17:30:55;4.15;;;1.30;;
67508;SDS011;54354;44.724;11.284;2022-09-02T17:33:22;5.65;;;1.10;;
67508;SDS011;54354;44.724;11.284;2022-09-02T17:35:54;4.53;;;1.10;;
67508;SDS011;54354;44.724;11.284;2022-09-02T17:38:20;5.10;;;0.93;;
67508;SDS011;54354;44.724;11.284;2022-09-02T17:40:45;2.95;;;0.90;;
67508;SDS011;54354;44.724;11.284;2022-09-02T17:43:29;5.22;;;1.10;;
67508;SDS011;54354;44.724;11.284;2022-09-02T17:46:05;6.30;;;1.10;;
67508;SDS011;54354;44.724;11.284;2022-09-02T17:48:33;5.32;;;0.90;;
67508;SDS011;54354;44.724;11.284;2022-09-02T17:50:59;4.55;;;1.15;;
67508;SDS011;54354;44.724;11.284;2022-09-02T17:53:25;4.88;;;0.90;;
67508;SDS011;54354;44.724;11.284;2022-09-02T17:55:53;5.03;;;0.90;;